Allendale, Indiana
Current Conditions -  °F | °C
As of 2:53 AM on Wednesday 26 Nov 2014 (Local Time) from KHUF Reporting Station
Few Clouds Few Clouds  
Wind Chill: 16°   Ceiling: Unl
Heat Index: 23°   Visibility: 10mi
Dew Point: 20°   Wind: 6mph
Humidity: 88%   Direction: 70°ENE
Pressure: 30.16"   Gusts: NA
Location:  39.3587°N, 87.4056°W
Report Text: KHUF 260753Z 07005KT 10SM FEW013 M05/M07 A3016 RMK AO2 SLP221 T10501067
Loading
Personal Weather Stations






























Interactive Weather Map New forecast layout! Learn more

10-Day Weather Forecast

Advertisements
Track Severe Weather on mobile